createdAt,value
2019-05-04T00:00:16.261Z,7.72
2019-05-04T00:02:46.070Z,7.62
2019-05-04T00:05:16.315Z,7.67
2019-05-04T00:07:44.868Z,7.64
2019-05-04T00:10:14.649Z,7.86
2019-05-04T00:12:45.299Z,7.81
2019-05-04T00:15:14.490Z,7.56
2019-05-04T00:17:45.082Z,7.61
2019-05-04T00:20:14.485Z,7.61
2019-05-04T00:22:45.104Z,7.72
2019-05-04T00:25:15.230Z,7.65
2019-05-04T00:27:44.691Z,7.58
2019-05-04T00:30:15.670Z,7.82
2019-05-04T00:32:58.244Z,7.72
2019-05-04T00:35:31.177Z,7.61
2019-05-04T00:37:59.655Z,7.75
2019-05-04T00:40:28.132Z,7.89
2019-05-04T00:42:56.802Z,7.87
2019-05-04T00:45:25.326Z,7.79
2019-05-04T00:47:55.332Z,7.91
2019-05-04T00:50:25.292Z,7.77
2019-05-04T00:52:54.747Z,7.63
2019-05-04T00:55:25.273Z,7.83
2019-05-04T00:57:55.540Z,7.93
2019-05-04T01:00:25.818Z,7.88
2019-05-04T01:02:55.123Z,7.83
2019-05-04T01:05:25.052Z,7.83
2019-05-04T01:07:54.893Z,7.90
2019-05-04T01:10:25.252Z,7.90
2019-05-04T01:12:54.670Z,7.77
2019-05-04T01:15:25.303Z,7.61
2019-05-04T01:17:54.586Z,7.67
2019-05-04T01:20:24.995Z,7.48
2019-05-04T01:22:54.871Z,7.54
2019-05-04T01:25:24.685Z,7.50
2019-05-04T01:27:54.621Z,7.52
2019-05-04T01:30:25.425Z,7.44
2019-05-04T01:32:54.832Z,7.47
2019-05-04T01:35:24.702Z,7.38
2019-05-04T01:37:56.586Z,7.43
2019-05-04T01:40:32.942Z,7.27
2019-05-04T01:43:01.469Z,7.31
2019-05-04T01:45:29.900Z,7.26
2019-05-04T01:47:58.584Z,7.52
2019-05-04T01:50:27.046Z,7.36
2019-05-04T01:52:57.202Z,7.21
2019-05-04T01:55:26.286Z,7.50
2019-05-04T01:57:56.443Z,7.39
2019-05-04T02:00:29.257Z,7.24
2019-05-04T02:02:57.763Z,7.19
2019-05-04T02:05:26.195Z,7.29
2019-05-04T02:07:55.226Z,7.25
2019-05-04T02:10:24.619Z,7.23
2019-05-04T02:12:55.223Z,7.09
2019-05-04T02:15:23.412Z,7.25
2019-05-04T02:17:52.445Z,7.23
2019-05-04T02:20:20.894Z,7.31
2019-05-04T02:22:55.736Z,7.40
2019-05-04T02:25:34.780Z,7.20
2019-05-04T02:28:05.696Z,7.19
2019-05-04T02:30:37.107Z,7.17
2019-05-04T02:33:06.329Z,7.14
2019-05-04T02:35:35.760Z,7.07
2019-05-04T02:38:13.014Z,7.07
2019-05-04T02:40:49.754Z,7.09
2019-05-04T02:43:07.289Z,7.01
2019-05-04T02:45:40.071Z,6.97
2019-05-04T02:48:07.581Z,7.04
2019-05-04T02:50:56.463Z,6.90
2019-05-04T02:53:25.826Z,6.87
2019-05-04T02:55:55.456Z,6.87
2019-05-04T02:58:26.271Z,6.85
2019-05-04T03:00:56.211Z,6.78
2019-05-04T03:03:25.259Z,6.79
2019-05-04T03:05:56.256Z,6.56
2019-05-04T03:08:31.280Z,6.55
2019-05-04T03:10:55.280Z,6.45
2019-05-04T03:13:25.538Z,6.36
2019-05-04T03:15:55.309Z,6.40
2019-05-04T03:18:26.037Z,6.39
2019-05-04T03:20:56.315Z,6.50
2019-05-04T03:23:25.867Z,6.48
2019-05-04T03:25:56.037Z,6.51
2019-05-04T03:28:25.432Z,6.51
2019-05-04T03:30:58.450Z,6.60
2019-05-04T03:33:28.590Z,6.57
2019-05-04T03:36:06.416Z,6.55
2019-05-04T03:38:27.612Z,6.63
2019-05-04T03:40:55.271Z,6.62
2019-05-04T03:43:25.796Z,6.64
2019-05-04T03:46:07.950Z,6.76
2019-05-04T03:48:56.198Z,6.72
2019-05-04T03:51:26.085Z,6.87
2019-05-04T03:53:55.613Z,6.72
2019-05-04T03:56:25.493Z,6.81
2019-05-04T03:58:56.109Z,6.63
2019-05-04T04:01:26.129Z,6.75
2019-05-04T04:03:56.048Z,6.58
2019-05-04T04:06:25.688Z,6.76
2019-05-04T04:09:08.165Z,6.69
2019-05-04T04:11:25.519Z,6.72
2019-05-04T04:13:55.883Z,6.61
2019-05-04T04:16:31.907Z,6.48
2019-05-04T04:19:00.399Z,6.40
2019-05-04T04:21:28.941Z,6.39
2019-05-04T04:23:59.223Z,6.61
2019-05-04T04:26:29.385Z,6.62
2019-05-04T04:28:59.536Z,6.54
2019-05-04T04:31:28.012Z,6.63
2019-05-04T04:34:01.342Z,6.64
2019-05-04T04:36:26.669Z,6.58
2019-05-04T04:38:56.632Z,6.55
2019-05-04T04:41:25.749Z,6.55
2019-05-04T04:43:56.317Z,6.58
2019-05-04T04:46:25.721Z,6.63
2019-05-04T04:48:55.735Z,6.62
2019-05-04T04:51:26.602Z,6.87
2019-05-04T04:53:56.183Z,6.81
2019-05-04T04:56:26.373Z,6.60
2019-05-04T04:59:11.723Z,6.47
2019-05-04T05:01:47.141Z,6.65
2019-05-04T05:04:14.904Z,6.72
2019-05-04T05:06:42.375Z,6.67
2019-05-04T05:09:10.993Z,6.71
2019-05-04T05:11:39.490Z,6.65
2019-05-04T05:14:07.931Z,6.69
2019-05-04T05:16:36.440Z,6.63
2019-05-04T05:19:04.883Z,6.57
2019-05-04T05:21:34.536Z,6.53
2019-05-04T05:24:04.599Z,6.58
2019-05-04T05:26:35.140Z,6.60
2019-05-04T05:29:04.638Z,6.79
2019-05-04T05:31:35.171Z,6.72
2019-05-04T05:34:20.324Z,6.80
2019-05-04T05:36:50.499Z,6.71
2019-05-04T05:39:18.947Z,6.77
2019-05-04T05:41:49.983Z,6.87
2019-05-04T05:44:18.346Z,6.80
2019-05-04T05:46:56.201Z,6.87
2019-05-04T05:49:26.341Z,7.09
2019-05-04T05:52:15.052Z,6.67
2019-05-04T05:55:01.156Z,6.92
2019-05-04T05:57:39.976Z,6.89
2019-05-04T06:00:26.950Z,6.79
2019-05-04T06:03:14.715Z,6.90
2019-05-04T06:05:45.249Z,6.95
2019-05-04T06:08:15.898Z,7.00
2019-05-04T06:10:44.398Z,7.15
2019-05-04T06:13:36.970Z,7.14
2019-05-04T06:16:16.845Z,6.92
2019-05-04T06:18:49.936Z,7.24
2019-05-04T06:21:18.113Z,7.23
2019-05-04T06:23:48.227Z,7.16
2019-05-04T06:26:20.799Z,7.16
2019-05-04T06:28:59.549Z,7.24
2019-05-04T06:31:28.187Z,7.27
2019-05-04T06:33:58.271Z,7.55
2019-05-04T06:36:40.058Z,7.51
2019-05-04T06:39:19.964Z,7.56
2019-05-04T06:41:47.677Z,7.62
2019-05-04T06:44:24.955Z,7.57
2019-05-04T06:46:52.641Z,7.37
2019-05-04T06:49:21.129Z,7.50
2019-05-04T06:52:04.799Z,7.66
2019-05-04T06:54:50.214Z,7.66
2019-05-04T06:57:40.785Z,7.69
2019-05-04T07:00:01.628Z,7.84
2019-05-04T07:02:30.273Z,7.73
2019-05-04T07:04:59.305Z,7.91
2019-05-04T07:07:27.737Z,7.96
2019-05-04T07:10:00.078Z,8.25
2019-05-04T07:12:29.934Z,7.98
2019-05-04T07:14:56.979Z,8.04
2019-05-04T07:17:25.410Z,7.85
2019-05-04T07:20:00.396Z,7.87
2019-05-04T07:22:31.098Z,7.90
2019-05-04T07:24:54.771Z,8.15
2019-05-04T07:27:24.521Z,7.89
2019-05-04T07:29:58.258Z,7.87
2019-05-04T07:32:24.469Z,8.24
2019-05-04T07:34:54.610Z,8.09
2019-05-04T07:37:46.405Z,8.14
2019-05-04T07:40:33.887Z,8.28
2019-05-04T07:43:05.030Z,8.08
2019-05-04T07:45:34.978Z,8.54
2019-05-04T07:48:05.092Z,8.27
2019-05-04T07:50:35.366Z,8.39
2019-05-04T07:53:06.009Z,8.18
2019-05-04T07:55:35.256Z,8.39
2019-05-04T07:58:05.489Z,8.59
2019-05-04T08:00:34.640Z,8.58
2019-05-04T08:03:04.789Z,8.22
2019-05-04T08:05:43.165Z,8.83
2019-05-04T08:08:05.498Z,8.43
2019-05-04T08:10:34.678Z,8.36
2019-05-04T08:13:05.087Z,8.27
2019-05-04T08:15:37.631Z,8.48
2019-05-04T08:18:06.011Z,8.70
2019-05-04T08:20:35.597Z,8.65
2019-05-04T08:23:05.162Z,8.68
2019-05-04T08:25:34.415Z,8.57
2019-05-04T08:28:05.038Z,8.91
2019-05-04T08:30:35.274Z,8.96
2019-05-04T08:33:04.805Z,8.61
2019-05-04T08:35:35.147Z,8.74
2019-05-04T08:38:09.968Z,8.83
2019-05-04T08:40:35.208Z,8.82
2019-05-04T08:43:11.827Z,8.78
2019-05-04T08:45:34.420Z,8.79
2019-05-04T08:48:05.149Z,9.12
2019-05-04T08:50:35.957Z,9.32
2019-05-04T08:53:07.318Z,8.55
2019-05-04T08:55:55.763Z,8.87
2019-05-04T08:58:28.895Z,8.98
2019-05-04T09:01:04.048Z,9.02
2019-05-04T09:03:30.585Z,8.89
2019-05-04T09:06:12.292Z,9.09
2019-05-04T09:08:29.302Z,9.26
2019-05-04T09:11:09.669Z,9.38
2019-05-04T09:13:28.026Z,9.08
2019-05-04T09:15:59.623Z,9.68
2019-05-04T09:18:29.606Z,9.60
2019-05-04T09:20:56.839Z,9.86
2019-05-04T09:23:28.250Z,9.48
2019-05-04T09:25:57.225Z,9.09
2019-05-04T09:28:25.980Z,9.59
2019-05-04T09:31:01.633Z,9.50
2019-05-04T09:33:32.305Z,9.64
2019-05-04T09:36:01.357Z,9.50
2019-05-04T09:38:27.218Z,9.88
2019-05-04T09:40:57.521Z,9.93
2019-05-04T09:43:29.010Z,9.57
2019-05-04T09:46:00.393Z,9.65
2019-05-04T09:48:26.487Z,9.81
2019-05-04T09:50:56.710Z,9.62
2019-05-04T09:53:32.888Z,9.83
2019-05-04T09:55:55.420Z,10.13
2019-05-04T09:58:25.083Z,9.90
2019-05-04T10:00:56.019Z,9.75
2019-05-04T10:03:25.861Z,10.08
2019-05-04T10:05:55.495Z,10.17
2019-05-04T10:08:25.326Z,10.09
2019-05-04T10:10:56.190Z,10.17
2019-05-04T10:13:26.310Z,10.37
2019-05-04T10:16:05.476Z,10.00
2019-05-04T10:18:35.824Z,10.09
2019-05-04T10:21:04.713Z,10.48
2019-05-04T10:23:34.824Z,10.44
2019-05-04T10:26:25.050Z,10.34
2019-05-04T10:28:55.711Z,10.53
2019-05-04T10:31:24.591Z,10.36
2019-05-04T10:33:55.348Z,10.61
2019-05-04T10:36:24.601Z,10.36
2019-05-04T10:38:55.004Z,10.93
2019-05-04T10:41:24.979Z,11.18
2019-05-04T10:43:54.634Z,11.38
2019-05-04T10:46:25.268Z,11.83
2019-05-04T10:48:54.006Z,12.06
2019-05-04T10:51:22.442Z,12.22
2019-05-04T10:53:51.030Z,12.04
2019-05-04T10:56:19.466Z,12.44
2019-05-04T10:58:48.240Z,12.30
2019-05-04T11:01:16.677Z,12.35
2019-05-04T11:03:45.182Z,12.56
2019-05-04T11:06:15.703Z,12.34
2019-05-04T11:08:45.313Z,13.19
2019-05-04T11:11:20.560Z,13.32
2019-05-04T11:13:45.376Z,12.27
2019-05-04T11:16:14.147Z,12.35
2019-05-04T11:18:42.640Z,11.80
2019-05-04T11:21:11.101Z,12.35
2019-05-04T11:23:39.595Z,11.62
2019-05-04T11:26:14.319Z,11.87
2019-05-04T11:28:44.445Z,11.62
2019-05-04T11:31:14.252Z,11.81
2019-05-04T11:33:43.138Z,11.71
2019-05-04T11:36:11.616Z,12.04
2019-05-04T11:38:40.108Z,11.20
2019-05-04T11:41:08.574Z,11.84
2019-05-04T11:43:37.646Z,11.87
2019-05-04T11:46:06.114Z,11.68
2019-05-04T11:48:34.968Z,11.65
2019-05-04T11:51:05.064Z,12.16
2019-05-04T11:53:35.088Z,12.02
2019-05-04T11:56:04.989Z,12.45
2019-05-04T11:58:34.598Z,12.49
2019-05-04T12:01:04.310Z,12.69
2019-05-04T12:03:32.771Z,12.30
2019-05-04T12:06:05.935Z,12.74
2019-05-04T12:08:36.078Z,12.97
2019-05-04T12:11:06.286Z,12.69
2019-05-04T12:13:45.153Z,13.40
2019-05-04T12:16:05.597Z,12.97
2019-05-04T12:18:35.197Z,13.95
2019-05-04T12:21:04.907Z,14.78
2019-05-04T12:23:34.562Z,14.84
2019-05-04T12:26:04.798Z,14.69
2019-05-04T12:28:35.436Z,13.66
2019-05-04T12:31:05.451Z,14.78
2019-05-04T12:33:34.023Z,15.21
2019-05-04T12:36:04.641Z,16.40
2019-05-04T12:38:35.326Z,17.35
2019-05-04T12:41:05.302Z,16.74
2019-05-04T12:43:34.455Z,17.94
2019-05-04T12:46:04.547Z,18.13
2019-05-04T12:48:35.141Z,18.49
2019-05-04T12:51:05.104Z,16.20
2019-05-04T12:53:35.464Z,18.80
2019-05-04T12:56:05.385Z,17.88
2019-05-04T12:58:35.212Z,15.73
2019-05-04T13:01:08.723Z,15.09
2019-05-04T13:03:36.026Z,17.25
2019-05-04T13:06:05.330Z,18.67
2019-05-04T13:08:35.296Z,17.03
2019-05-04T13:11:04.646Z,17.61
2019-05-04T13:13:34.810Z,17.75
2019-05-04T13:16:04.797Z,17.69
2019-05-04T13:18:51.793Z,15.72
2019-05-04T13:21:20.564Z,15.82
2019-05-04T13:23:49.030Z,14.67
2019-05-04T13:26:17.512Z,16.87
2019-05-04T13:28:46.026Z,16.69
2019-05-04T13:31:14.778Z,16.52
2019-05-04T13:33:45.044Z,15.65
2019-05-04T13:36:15.385Z,15.73
2019-05-04T13:38:44.672Z,14.78
2019-05-04T13:41:14.731Z,16.97
2019-05-04T13:43:45.545Z,17.08
2019-05-04T13:46:13.770Z,18.93
2019-05-04T13:48:44.469Z,20.37
2019-05-04T13:51:12.502Z,20.41
2019-05-04T13:53:44.811Z,20.67
2019-05-04T13:56:20.614Z,20.10
2019-05-04T13:58:54.684Z,18.15
2019-05-04T14:01:25.059Z,18.87
2019-05-04T14:04:04.397Z,16.55
2019-05-04T14:06:35.335Z,20.04
2019-05-04T14:09:06.733Z,21.09
2019-05-04T14:11:35.415Z,22.54
2019-05-04T14:14:05.096Z,17.57
2019-05-04T14:16:34.466Z,15.92
2019-05-04T14:19:04.895Z,14.51
2019-05-04T14:21:35.390Z,13.56
2019-05-04T14:24:04.822Z,12.87
2019-05-04T14:26:35.172Z,12.62
2019-05-04T14:29:04.789Z,12.82
2019-05-04T14:31:37.740Z,12.65
2019-05-04T14:34:07.751Z,12.73
2019-05-04T14:36:36.549Z,12.59
2019-05-04T14:39:07.654Z,12.26
2019-05-04T14:41:36.140Z,12.07
2019-05-04T14:44:06.775Z,12.03
2019-05-04T14:46:36.984Z,13.39
2019-05-04T14:49:09.938Z,11.78
2019-05-04T14:51:38.463Z,11.65
2019-05-04T14:54:06.899Z,11.41
2019-05-04T14:56:35.562Z,12.29
2019-05-04T14:59:05.040Z,12.39
2019-05-04T15:01:34.456Z,12.80
2019-05-04T15:04:03.107Z,12.55
2019-05-04T15:06:31.716Z,12.12
2019-05-04T15:09:00.221Z,12.13
2019-05-04T15:11:29.122Z,11.18
2019-05-04T15:13:57.584Z,10.96
2019-05-04T15:16:26.079Z,10.96
2019-05-04T15:18:56.165Z,10.66
2019-05-04T15:21:24.700Z,10.31
2019-05-04T15:23:54.659Z,10.25
2019-05-04T15:26:24.854Z,9.90
2019-05-04T15:28:55.266Z,9.84
2019-05-04T15:31:24.619Z,10.07
2019-05-04T15:33:54.686Z,9.79
2019-05-04T15:36:24.755Z,10.48
2019-05-04T15:38:55.299Z,11.17
2019-05-04T15:41:24.239Z,11.22
2019-05-04T15:43:54.802Z,11.39
2019-05-04T15:46:24.583Z,11.11
2019-05-04T15:48:55.310Z,11.46
2019-05-04T15:51:25.031Z,11.29
2019-05-04T15:54:11.605Z,11.52
2019-05-04T15:56:44.900Z,11.50
2019-05-04T15:59:15.433Z,11.31
2019-05-04T16:01:43.971Z,11.57
2019-05-04T16:04:12.456Z,10.81
2019-05-04T16:06:41.005Z,11.11
2019-05-04T16:09:09.546Z,11.01
2019-05-04T16:11:38.035Z,10.85
2019-05-04T16:14:06.552Z,10.69
2019-05-04T16:16:35.105Z,11.09
2019-05-04T16:19:03.752Z,11.24
2019-05-04T16:21:32.343Z,10.89
2019-05-04T16:24:00.844Z,10.66
2019-05-04T16:26:29.372Z,10.99
2019-05-04T16:28:57.912Z,10.69
2019-05-04T16:31:29.440Z,10.73
2019-05-04T16:33:57.979Z,10.52
2019-05-04T16:36:28.863Z,10.17
2019-05-04T16:38:56.660Z,10.00
2019-05-04T16:41:26.368Z,9.88
2019-05-04T16:43:55.072Z,9.81
2019-05-04T16:46:23.525Z,9.74
2019-05-04T16:48:54.110Z,9.78
2019-05-04T16:51:29.998Z,9.71
2019-05-04T16:53:58.478Z,9.62
2019-05-04T16:56:26.935Z,9.58
2019-05-04T16:58:55.753Z,9.55
2019-05-04T17:01:26.731Z,9.58
2019-05-04T17:04:00.362Z,9.58
2019-05-04T17:06:29.258Z,9.40
2019-05-04T17:08:58.174Z,9.46
2019-05-04T17:11:26.657Z,9.49
2019-05-04T17:13:55.727Z,9.41
2019-05-04T17:16:25.450Z,9.51
2019-05-04T17:18:54.345Z,9.43
2019-05-04T17:21:24.854Z,9.49
2019-05-04T17:23:54.243Z,9.59
2019-05-04T17:26:25.488Z,9.49
2019-05-04T17:28:54.487Z,9.22
2019-05-04T17:31:25.177Z,9.50
2019-05-04T17:33:55.370Z,9.52
2019-05-04T17:36:25.273Z,9.76
2019-05-04T17:38:53.961Z,9.60
2019-05-04T17:41:24.478Z,9.54
2019-05-04T17:44:15.695Z,9.45
2019-05-04T17:46:50.014Z,9.30
2019-05-04T17:49:21.635Z,9.21
2019-05-04T17:51:50.207Z,9.08
2019-05-04T17:54:18.678Z,8.85
2019-05-04T17:56:47.166Z,8.79
2019-05-04T17:59:15.732Z,8.75
2019-05-04T18:01:54.857Z,8.46
2019-05-04T18:04:31.308Z,8.64
2019-05-04T18:06:59.924Z,8.60
2019-05-04T18:09:28.685Z,8.31
2019-05-04T18:12:01.566Z,8.21
2019-05-04T18:14:37.506Z,8.10
2019-05-04T18:17:25.747Z,7.96
2019-05-04T18:19:54.657Z,7.84
2019-05-04T18:22:24.741Z,7.65
2019-05-04T18:24:54.497Z,7.65
2019-05-04T18:27:23.201Z,7.58
2019-05-04T18:29:51.699Z,7.40
2019-05-04T18:32:20.138Z,7.32
2019-05-04T18:34:48.630Z,7.15
2019-05-04T18:37:17.096Z,7.15
2019-05-04T18:39:45.588Z,7.09
2019-05-04T18:42:15.890Z,6.94
2019-05-04T18:45:04.966Z,6.87
2019-05-04T18:47:35.152Z,6.79
2019-05-04T18:50:06.090Z,6.76
2019-05-04T18:52:35.489Z,6.75
2019-05-04T18:55:06.084Z,6.72
2019-05-04T18:57:35.193Z,6.71
2019-05-04T19:00:06.023Z,6.56
2019-05-04T19:02:34.513Z,6.46
2019-05-04T19:05:04.887Z,6.38
2019-05-04T19:08:02.155Z,6.15
2019-05-04T19:10:23.539Z,6.04
2019-05-04T19:12:54.189Z,6.02
2019-05-04T19:15:22.361Z,6.09
2019-05-04T19:17:50.945Z,6.13
2019-05-04T19:20:19.500Z,6.11
2019-05-04T19:22:47.951Z,5.94
2019-05-04T19:25:17.899Z,5.84
2019-05-04T19:27:47.068Z,5.84
2019-05-04T19:30:16.843Z,5.78
2019-05-04T19:32:46.450Z,5.69
2019-05-04T19:35:16.864Z,5.79
2019-05-04T19:37:45.324Z,5.72
2019-05-04T19:40:15.120Z,5.60
2019-05-04T19:42:47.986Z,5.60
2019-05-04T19:45:36.150Z,5.67
2019-05-04T19:48:09.519Z,5.60
2019-05-04T19:50:38.097Z,5.49
2019-05-04T19:53:06.553Z,5.44
2019-05-04T19:55:35.202Z,5.36
2019-05-04T19:58:03.650Z,5.55
2019-05-04T20:00:38.585Z,5.49
2019-05-04T20:03:06.931Z,5.44
2019-05-04T20:05:35.623Z,5.38
2019-05-04T20:08:06.172Z,5.32
2019-05-04T20:10:36.275Z,5.26
2019-05-04T20:13:04.959Z,5.23
2019-05-04T20:15:35.387Z,5.28
2019-05-04T20:18:03.986Z,5.21
2019-05-04T20:20:32.438Z,5.29
2019-05-04T20:23:00.979Z,5.16
2019-05-04T20:25:29.405Z,5.23
2019-05-04T20:27:58.051Z,5.21
2019-05-04T20:30:26.786Z,5.23
2019-05-04T20:32:55.558Z,5.10
2019-05-04T20:35:24.661Z,5.13
2019-05-04T20:37:53.433Z,5.24
2019-05-04T20:40:21.971Z,5.02
2019-05-04T20:42:50.478Z,5.07
2019-05-04T20:45:25.463Z,5.07
2019-05-04T20:47:59.792Z,5.07
2019-05-04T20:50:28.362Z,5.01
2019-05-04T20:52:58.481Z,4.93
2019-05-04T20:55:27.011Z,4.92
2019-05-04T20:57:55.824Z,4.90
2019-05-04T21:00:24.551Z,4.94
2019-05-04T21:02:53.974Z,4.89
2019-05-04T21:05:29.846Z,4.78
2019-05-04T21:07:58.326Z,4.68
2019-05-04T21:10:26.770Z,4.65
2019-05-04T21:12:55.293Z,4.68
2019-05-04T21:15:24.732Z,4.53
2019-05-04T21:18:03.546Z,4.45
2019-05-04T21:20:44.833Z,4.41
2019-05-04T21:23:14.720Z,4.41
2019-05-04T21:25:44.578Z,4.32
2019-05-04T21:28:14.620Z,4.33
2019-05-04T21:30:44.801Z,4.23
2019-05-04T21:33:15.764Z,4.22
2019-05-04T21:35:44.652Z,4.32
2019-05-04T21:38:14.644Z,4.22
2019-05-04T21:40:44.404Z,4.16
2019-05-04T21:43:14.446Z,4.08
2019-05-04T21:45:55.164Z,4.12
2019-05-04T21:48:41.260Z,3.99
2019-05-04T21:51:11.747Z,3.89
2019-05-04T21:53:40.285Z,3.90
2019-05-04T21:56:08.787Z,3.78
2019-05-04T21:58:37.298Z,3.70
2019-05-04T22:01:15.299Z,3.82
2019-05-04T22:03:51.088Z,3.77
2019-05-04T22:06:20.704Z,3.70
2019-05-04T22:08:49.141Z,3.81
2019-05-04T22:11:17.795Z,3.74
2019-05-04T22:13:46.312Z,3.82
2019-05-04T22:16:14.872Z,3.76
2019-05-04T22:18:45.166Z,3.89
2019-05-04T22:21:14.862Z,3.84
2019-05-04T22:23:44.567Z,3.83
2019-05-04T22:26:15.181Z,3.83
2019-05-04T22:28:44.559Z,3.64
2019-05-04T22:31:15.129Z,3.66
2019-05-04T22:33:45.733Z,3.72
2019-05-04T22:36:27.592Z,3.67
2019-05-04T22:38:56.119Z,3.73
2019-05-04T22:41:24.867Z,3.69
2019-05-04T22:43:53.810Z,3.75
2019-05-04T22:46:24.189Z,3.81
2019-05-04T22:48:54.426Z,3.89
2019-05-04T22:51:22.769Z,3.84
2019-05-04T22:53:54.632Z,3.84
2019-05-04T22:56:25.027Z,3.96
2019-05-04T22:59:14.646Z,3.87
2019-05-04T23:02:01.603Z,3.84
2019-05-04T23:04:34.606Z,3.76
2019-05-04T23:07:03.269Z,3.67
2019-05-04T23:09:31.735Z,3.59
2019-05-04T23:12:00.277Z,3.62
2019-05-04T23:14:28.748Z,3.62
2019-05-04T23:16:57.316Z,3.57
2019-05-04T23:19:26.134Z,3.49
2019-05-04T23:21:54.753Z,3.34
2019-05-04T23:24:24.268Z,3.42
2019-05-04T23:26:53.177Z,3.35
2019-05-04T23:29:21.615Z,3.31
2019-05-04T23:31:50.099Z,3.26
2019-05-04T23:34:18.675Z,3.21
2019-05-04T23:36:47.154Z,3.08
2019-05-04T23:39:17.028Z,2.98
2019-05-04T23:41:45.741Z,2.87
2019-05-04T23:44:15.140Z,3.10
2019-05-04T23:46:48.873Z,2.85
2019-05-04T23:49:19.494Z,2.86
2019-05-04T23:51:47.482Z,2.84
2019-05-04T23:54:15.987Z,2.89
2019-05-04T23:56:45.190Z,2.86
2019-05-04T23:59:15.667Z,2.86
